createdAt,value
2023-04-25T00:00:56.861Z,1002.92
2023-04-25T00:01:56.816Z,1002.94
2023-04-25T00:02:57.133Z,1002.88
2023-04-25T00:03:57.349Z,1002.89
2023-04-25T00:04:56.920Z,1002.90
2023-04-25T00:05:56.755Z,1002.91
2023-04-25T00:06:56.716Z,1002.88
2023-04-25T00:07:56.704Z,1002.91
2023-04-25T00:08:56.650Z,1002.92
2023-04-25T00:09:56.617Z,1002.91
2023-04-25T00:10:56.601Z,1002.91
2023-04-25T00:11:56.569Z,1002.99
2023-04-25T00:12:56.544Z,1002.96
2023-04-25T00:13:56.541Z,1003.00
2023-04-25T00:14:56.492Z,1003.00
2023-04-25T00:15:56.494Z,1002.99
2023-04-25T00:16:56.438Z,1003.05
2023-04-25T00:17:56.451Z,1003.08
2023-04-25T00:18:56.392Z,1003.01
2023-04-25T00:19:56.360Z,1003.04
2023-04-25T00:20:56.335Z,1003.02
2023-04-25T00:21:56.309Z,1003.04
2023-04-25T00:22:56.284Z,1003.06
2023-04-25T00:23:56.276Z,1003.07
2023-04-25T00:24:56.238Z,1003.07
2023-04-25T00:25:56.201Z,1003.10
2023-04-25T00:26:56.181Z,1003.08
2023-04-25T00:27:56.157Z,1003.09
2023-04-25T00:28:56.133Z,1003.05
2023-04-25T00:29:56.105Z,1003.02
2023-04-25T00:30:56.081Z,1003.02
2023-04-25T00:31:56.102Z,1003.07
2023-04-25T00:32:56.045Z,1003.00
2023-04-25T00:33:55.998Z,1003.06
2023-04-25T00:34:55.987Z,1003.09
2023-04-25T00:35:55.940Z,1003.07
2023-04-25T00:36:55.924Z,1003.06
2023-04-25T00:37:55.894Z,1003.07
2023-04-25T00:38:55.895Z,1003.07
2023-04-25T00:39:55.881Z,1003.09
2023-04-25T00:40:55.818Z,1003.10
2023-04-25T00:41:55.791Z,1003.08
2023-04-25T00:42:55.761Z,1003.10
2023-04-25T00:43:55.729Z,1003.08
2023-04-25T00:44:55.712Z,1003.09
2023-04-25T00:45:55.686Z,1003.05
2023-04-25T00:46:55.751Z,1003.10
2023-04-25T00:47:55.665Z,1003.14
2023-04-25T00:48:55.614Z,1003.08
2023-04-25T00:49:55.583Z,1003.07
2023-04-25T00:50:55.563Z,1003.10
2023-04-25T00:51:55.529Z,1003.07
2023-04-25T00:52:55.498Z,1003.10
2023-04-25T00:53:55.479Z,1003.11
2023-04-25T00:54:55.451Z,1003.06
2023-04-25T00:55:55.448Z,1003.05
2023-04-25T00:56:55.403Z,1003.11
2023-04-25T00:57:55.368Z,1003.08
2023-04-25T00:58:55.343Z,1003.12
2023-04-25T00:59:55.324Z,1003.11
2023-04-25T01:00:55.331Z,1003.07
2023-04-25T01:01:55.282Z,1003.10
2023-04-25T01:02:55.355Z,1003.10
2023-04-25T01:03:55.663Z,1003.06
2023-04-25T01:04:55.189Z,1003.08
2023-04-25T01:05:55.173Z,1003.10
2023-04-25T01:06:55.136Z,1003.07
2023-04-25T01:07:55.115Z,1003.09
2023-04-25T01:08:55.089Z,1003.07
2023-04-25T01:09:55.064Z,1003.08
2023-04-25T01:10:55.038Z,1003.11
2023-04-25T01:11:55.027Z,1003.13
2023-04-25T01:12:54.981Z,1003.13
2023-04-25T01:13:54.954Z,1003.15
2023-04-25T01:14:54.939Z,1003.15
2023-04-25T01:15:54.917Z,1003.17
2023-04-25T01:16:54.940Z,1003.14
2023-04-25T01:17:54.874Z,1003.18
2023-04-25T01:18:54.830Z,1003.18
2023-04-25T01:19:54.804Z,1003.17
2023-04-25T01:20:54.784Z,1003.17
2023-04-25T01:21:54.745Z,1003.21
2023-04-25T01:22:54.720Z,1003.18
2023-04-25T01:23:54.698Z,1003.17
2023-04-25T01:24:54.677Z,1003.13
2023-04-25T01:25:54.650Z,1003.16
2023-04-25T01:26:54.625Z,1003.20
2023-04-25T01:27:54.624Z,1003.17
2023-04-25T01:28:54.573Z,1003.18
2023-04-25T01:29:54.545Z,1003.18
2023-04-25T01:30:54.517Z,1003.21
2023-04-25T01:31:54.521Z,1003.20
2023-04-25T01:32:54.497Z,1003.21
2023-04-25T01:33:54.449Z,1003.23
2023-04-25T01:34:54.416Z,1003.21
2023-04-25T01:35:54.387Z,1003.20
2023-04-25T01:36:54.380Z,1003.26
2023-04-25T01:37:54.348Z,1003.22
2023-04-25T01:38:54.313Z,1003.24
2023-04-25T01:39:54.282Z,1003.25
2023-04-25T01:40:54.278Z,1003.27
2023-04-25T01:41:54.229Z,1003.24
2023-04-25T01:42:54.211Z,1003.30
2023-04-25T01:43:54.205Z,1003.29
2023-04-25T01:44:54.152Z,1003.30
2023-04-25T01:45:54.126Z,1003.30
2023-04-25T01:46:54.108Z,1003.31
2023-04-25T01:47:54.083Z,1003.29
2023-04-25T01:48:54.051Z,1003.30
2023-04-25T01:49:54.022Z,1003.33
2023-04-25T01:50:54.000Z,1003.35
2023-04-25T01:51:53.968Z,1003.32
2023-04-25T01:52:53.947Z,1003.34
2023-04-25T01:53:53.918Z,1003.34
2023-04-25T01:54:53.900Z,1003.34
2023-04-25T01:55:53.868Z,1003.37
2023-04-25T01:56:53.871Z,1003.34
2023-04-25T01:57:53.812Z,1003.33
2023-04-25T01:58:53.800Z,1003.36
2023-04-25T01:59:53.788Z,1003.35
2023-04-25T02:00:53.755Z,1003.40
2023-04-25T02:01:53.794Z,1003.39
2023-04-25T02:02:53.828Z,1003.44
2023-04-25T02:03:54.002Z,1003.40
2023-04-25T02:04:53.643Z,1003.43
2023-04-25T02:05:53.661Z,1003.38
2023-04-25T02:06:53.600Z,1003.42
2023-04-25T02:07:53.570Z,1003.44
2023-04-25T02:08:53.531Z,1003.41
2023-04-25T02:09:53.506Z,1003.45
2023-04-25T02:10:53.481Z,1003.47
2023-04-25T02:11:53.457Z,1003.48
2023-04-25T02:12:53.437Z,1003.47
2023-04-25T02:13:53.436Z,1003.51
2023-04-25T02:14:53.386Z,1003.54
2023-04-25T02:15:53.436Z,1003.51
2023-04-25T02:16:53.443Z,1003.58
2023-04-25T02:17:53.353Z,1003.57
2023-04-25T02:18:53.280Z,1003.53
2023-04-25T02:19:53.248Z,1003.52
2023-04-25T02:20:53.224Z,1003.53
2023-04-25T02:21:53.192Z,1003.56
2023-04-25T02:22:53.170Z,1003.52
2023-04-25T02:23:53.379Z,1003.54
2023-04-25T02:24:53.118Z,1003.59
2023-04-25T02:25:53.092Z,1003.58
2023-04-25T02:26:53.064Z,1003.57
2023-04-25T02:27:53.031Z,1003.56
2023-04-25T02:28:53.008Z,1003.57
2023-04-25T02:29:52.982Z,1003.57
2023-04-25T02:30:53.048Z,1003.58
2023-04-25T02:31:53.080Z,1003.53
2023-04-25T02:32:52.982Z,1003.59
2023-04-25T02:33:53.166Z,1003.61
2023-04-25T02:34:52.858Z,1003.59
2023-04-25T02:35:52.832Z,1003.60
2023-04-25T02:36:52.814Z,1003.61
2023-04-25T02:37:52.775Z,1003.60
2023-04-25T02:38:52.748Z,1003.60
2023-04-25T02:39:52.725Z,1003.60
2023-04-25T02:40:52.699Z,1003.63
2023-04-25T02:41:52.670Z,1003.58
2023-04-25T02:42:52.677Z,1003.59
2023-04-25T02:43:53.016Z,1003.63
2023-04-25T02:44:52.598Z,1003.69
2023-04-25T02:45:52.568Z,1003.74
2023-04-25T02:46:52.559Z,1003.73
2023-04-25T02:47:52.635Z,1003.76
2023-04-25T02:48:52.500Z,1003.82
2023-04-25T02:49:52.482Z,1003.83
2023-04-25T02:50:52.444Z,1003.84
2023-04-25T02:51:52.411Z,1003.88
2023-04-25T02:52:52.378Z,1003.84
2023-04-25T02:53:52.506Z,1003.86
2023-04-25T02:54:52.329Z,1003.84
2023-04-25T02:55:52.310Z,1003.89
2023-04-25T02:56:52.276Z,1003.91
2023-04-25T02:57:52.252Z,1003.89
2023-04-25T02:58:52.232Z,1003.95
2023-04-25T02:59:52.200Z,1003.96
2023-04-25T03:00:52.205Z,1003.93
2023-04-25T03:01:52.150Z,1003.94
2023-04-25T03:02:52.235Z,1003.92
2023-04-25T03:03:52.584Z,1003.93
2023-04-25T03:04:52.076Z,1003.94
2023-04-25T03:05:52.045Z,1003.97
2023-04-25T03:06:52.019Z,1003.97
2023-04-25T03:07:52.008Z,1003.98
2023-04-25T03:08:51.971Z,1003.99
2023-04-25T03:09:51.956Z,1004.01
2023-04-25T03:10:51.919Z,1003.99
2023-04-25T03:11:51.895Z,1004.04
2023-04-25T03:12:51.872Z,1004.01
2023-04-25T03:13:52.088Z,1004.03
2023-04-25T03:14:51.809Z,1004.04
2023-04-25T03:15:51.783Z,1004.03
2023-04-25T03:16:51.796Z,1004.04
2023-04-25T03:17:51.771Z,1004.03
2023-04-25T03:18:51.719Z,1003.97
2023-04-25T03:19:51.700Z,1004.00
2023-04-25T03:20:51.651Z,1003.99
2023-04-25T03:21:51.633Z,1004.02
2023-04-25T03:22:51.601Z,1004.02
2023-04-25T03:23:51.879Z,1004.04
2023-04-25T03:24:51.551Z,1004.05
2023-04-25T03:25:51.530Z,1004.08
2023-04-25T03:26:51.497Z,1004.08
2023-04-25T03:27:51.476Z,1004.08
2023-04-25T03:28:51.442Z,1004.07
2023-04-25T03:29:51.423Z,1004.09
2023-04-25T03:30:51.394Z,1004.06
2023-04-25T03:31:51.409Z,1004.11
2023-04-25T03:32:51.390Z,1004.11
2023-04-25T03:33:51.592Z,1004.15
2023-04-25T03:34:51.288Z,1004.15
2023-04-25T03:35:51.297Z,1004.15
2023-04-25T03:36:51.237Z,1004.19
2023-04-25T03:37:51.214Z,1004.19
2023-04-25T03:38:51.184Z,1004.18
2023-04-25T03:39:51.163Z,1004.24
2023-04-25T03:40:51.132Z,1004.22
2023-04-25T03:41:51.116Z,1004.22
2023-04-25T03:42:51.088Z,1004.23
2023-04-25T03:43:51.343Z,1004.21
2023-04-25T03:44:51.029Z,1004.18
2023-04-25T03:45:51.063Z,1004.21
2023-04-25T03:46:50.973Z,1004.22
2023-04-25T03:47:51.032Z,1004.22
2023-04-25T03:48:50.923Z,1004.21
2023-04-25T03:49:50.901Z,1004.25
2023-04-25T03:50:50.894Z,1004.30
2023-04-25T03:51:50.884Z,1004.30
2023-04-25T03:52:50.835Z,1004.28
2023-04-25T03:53:51.031Z,1004.24
2023-04-25T03:54:50.775Z,1004.31
2023-04-25T03:55:50.746Z,1004.29
2023-04-25T03:56:50.720Z,1004.31
2023-04-25T03:57:50.694Z,1004.31
2023-04-25T03:58:50.661Z,1004.34
2023-04-25T03:59:50.640Z,1004.35
2023-04-25T04:00:50.614Z,1004.35
2023-04-25T04:01:50.584Z,1004.37
2023-04-25T04:02:50.664Z,1004.37
2023-04-25T04:03:50.900Z,1004.33
2023-04-25T04:04:51.228Z,1004.35
2023-04-25T04:05:50.580Z,1004.38
2023-04-25T04:06:50.458Z,1004.36
2023-04-25T04:07:50.462Z,1004.37
2023-04-25T04:08:50.408Z,1004.35
2023-04-25T04:09:50.385Z,1004.37
2023-04-25T04:10:50.350Z,1004.38
2023-04-25T04:11:50.324Z,1004.42
2023-04-25T04:12:50.307Z,1004.39
2023-04-25T04:13:50.489Z,1004.41
2023-04-25T04:14:50.246Z,1004.40
2023-04-25T04:15:50.237Z,1004.49
2023-04-25T04:16:50.194Z,1004.47
2023-04-25T04:17:50.208Z,1004.48
2023-04-25T04:18:50.149Z,1004.48
2023-04-25T04:19:50.121Z,1004.51
2023-04-25T04:20:50.099Z,1004.49
2023-04-25T04:21:50.071Z,1004.52
2023-04-25T04:22:50.051Z,1004.55
2023-04-25T04:23:50.148Z,1004.54
2023-04-25T04:24:49.993Z,1004.53
2023-04-25T04:25:49.963Z,1004.56
2023-04-25T04:26:49.940Z,1004.58
2023-04-25T04:27:49.916Z,1004.59
2023-04-25T04:28:49.886Z,1004.59
2023-04-25T04:29:49.856Z,1004.59
2023-04-25T04:30:49.828Z,1004.59
2023-04-25T04:31:49.908Z,1004.60
2023-04-25T04:32:50.730Z,1004.62
2023-04-25T04:33:50.075Z,1004.61
2023-04-25T04:34:49.727Z,1004.63
2023-04-25T04:35:49.710Z,1004.63
2023-04-25T04:36:49.707Z,1004.61
2023-04-25T04:37:49.673Z,1004.64
2023-04-25T04:38:49.621Z,1004.65
2023-04-25T04:39:49.621Z,1004.63
2023-04-25T04:40:49.563Z,1004.67
2023-04-25T04:41:49.560Z,1004.68
2023-04-25T04:42:49.520Z,1004.66
2023-04-25T04:43:49.672Z,1004.72
2023-04-25T04:44:49.472Z,1004.69
2023-04-25T04:45:49.445Z,1004.66
2023-04-25T04:46:49.519Z,1004.66
2023-04-25T04:47:49.433Z,1004.67
2023-04-25T04:48:49.365Z,1004.69
2023-04-25T04:49:49.338Z,1004.68
2023-04-25T04:50:49.317Z,1004.72
2023-04-25T04:51:49.292Z,1004.70
2023-04-25T04:52:49.264Z,1004.76
2023-04-25T04:53:49.566Z,1004.76
2023-04-25T04:54:49.201Z,1004.76
2023-04-25T04:55:49.197Z,1004.78
2023-04-25T04:56:49.152Z,1004.79
2023-04-25T04:57:49.126Z,1004.80
2023-04-25T04:58:49.098Z,1004.82
2023-04-25T04:59:49.077Z,1004.82
2023-04-25T05:00:49.080Z,1004.84
2023-04-25T05:01:49.026Z,1004.82
2023-04-25T05:02:49.104Z,1004.86
2023-04-25T05:03:49.321Z,1004.84
2023-04-25T05:04:49.016Z,1004.86
2023-04-25T05:05:48.922Z,1004.88
2023-04-25T05:06:49.257Z,1004.89
2023-04-25T05:07:48.868Z,1004.91
2023-04-25T05:08:48.842Z,1004.94
2023-04-25T05:09:48.817Z,1004.97
2023-04-25T05:10:48.787Z,1004.96
2023-04-25T05:11:48.787Z,1004.95
2023-04-25T05:12:48.752Z,1004.95
2023-04-25T05:13:48.969Z,1004.93
2023-04-25T05:14:48.681Z,1004.96
2023-04-25T05:15:48.658Z,1004.96
2023-04-25T05:16:48.703Z,1004.95
2023-04-25T05:17:48.668Z,1004.98
2023-04-25T05:18:48.591Z,1004.98
2023-04-25T05:19:48.557Z,1005.06
2023-04-25T05:20:48.534Z,1005.07
2023-04-25T05:21:48.495Z,1005.08
2023-04-25T05:22:48.473Z,1005.12
2023-04-25T05:23:48.502Z,1005.12
2023-04-25T05:24:48.427Z,1005.17
2023-04-25T05:25:48.402Z,1005.16
2023-04-25T05:26:48.370Z,1005.19
2023-04-25T05:27:48.370Z,1005.19
2023-04-25T05:28:48.318Z,1005.17
2023-04-25T05:29:48.300Z,1005.20
2023-04-25T05:30:48.263Z,1005.20
2023-04-25T05:31:48.274Z,1005.21
2023-04-25T05:32:48.264Z,1005.20
2023-04-25T05:33:48.314Z,1005.24
2023-04-25T05:34:48.198Z,1005.26
2023-04-25T05:35:48.137Z,1005.22
2023-04-25T05:36:48.108Z,1005.26
2023-04-25T05:37:48.085Z,1005.24
2023-04-25T05:38:48.060Z,1005.27
2023-04-25T05:39:48.033Z,1005.26
2023-04-25T05:40:47.996Z,1005.27
2023-04-25T05:41:47.980Z,1005.27
2023-04-25T05:42:47.944Z,1005.31
2023-04-25T05:43:48.201Z,1005.34
2023-04-25T05:44:47.901Z,1005.35
2023-04-25T05:45:47.961Z,1005.36
2023-04-25T05:46:47.858Z,1005.39
2023-04-25T05:47:47.824Z,1005.35
2023-04-25T05:48:47.781Z,1005.43
2023-04-25T05:49:47.758Z,1005.45
2023-04-25T05:50:47.735Z,1005.45
2023-04-25T05:51:47.725Z,1005.46
2023-04-25T05:52:47.694Z,1005.44
2023-04-25T05:53:47.998Z,1005.50
2023-04-25T05:54:47.638Z,1005.55
2023-04-25T05:55:47.602Z,1005.55
2023-04-25T05:56:47.575Z,1005.55
2023-04-25T05:57:47.747Z,1005.56
2023-04-25T05:58:47.529Z,1005.53
2023-04-25T05:59:47.525Z,1005.53
2023-04-25T06:00:47.519Z,1005.56
2023-04-25T06:01:47.454Z,1005.55
2023-04-25T06:02:47.542Z,1005.56
2023-04-25T06:03:47.722Z,1005.57
2023-04-25T06:04:47.508Z,1005.58
2023-04-25T06:05:47.405Z,1005.59
2023-04-25T06:06:47.323Z,1005.61
2023-04-25T06:07:47.290Z,1005.60
2023-04-25T06:08:47.266Z,1005.61
2023-04-25T06:09:47.242Z,1005.61
2023-04-25T06:10:47.211Z,1005.62
2023-04-25T06:11:47.190Z,1005.64
2023-04-25T06:12:47.163Z,1005.69
2023-04-25T06:13:47.132Z,1005.68
2023-04-25T06:14:47.120Z,1005.70
2023-04-25T06:15:47.120Z,1005.70
2023-04-25T06:16:47.048Z,1005.75
2023-04-25T06:17:47.083Z,1005.74
2023-04-25T06:18:47.007Z,1005.77
2023-04-25T06:19:47.064Z,1005.75
2023-04-25T06:20:46.961Z,1005.80
2023-04-25T06:21:46.926Z,1005.79
2023-04-25T06:22:46.899Z,1005.83
2023-04-25T06:23:46.873Z,1005.84
2023-04-25T06:24:46.856Z,1005.88
2023-04-25T06:25:46.823Z,1005.86
2023-04-25T06:26:46.811Z,1005.87
2023-04-25T06:27:46.787Z,1005.89
2023-04-25T06:28:46.741Z,1005.93
2023-04-25T06:29:46.717Z,1005.95
2023-04-25T06:30:46.686Z,1005.96
2023-04-25T06:31:46.761Z,1005.94
2023-04-25T06:32:46.675Z,1005.91
2023-04-25T06:33:46.622Z,1005.90
2023-04-25T06:34:46.584Z,1005.89
2023-04-25T06:35:46.627Z,1005.91
2023-04-25T06:36:46.536Z,1005.85
2023-04-25T06:37:46.511Z,1005.86
2023-04-25T06:38:46.481Z,1005.87
2023-04-25T06:39:46.459Z,1005.89
2023-04-25T06:40:46.426Z,1005.85
2023-04-25T06:41:46.406Z,1005.85
2023-04-25T06:42:46.379Z,1005.86
2023-04-25T06:43:46.345Z,1005.94
2023-04-25T06:44:46.326Z,1005.92
2023-04-25T06:45:48.364Z,1005.94
2023-04-25T06:46:46.291Z,1005.96
2023-04-25T06:47:46.324Z,1005.99
2023-04-25T06:48:46.219Z,1005.98
2023-04-25T06:49:46.207Z,1005.98
2023-04-25T06:50:46.186Z,1005.95
2023-04-25T06:51:46.142Z,1005.93
2023-04-25T06:52:46.115Z,1005.99
2023-04-25T06:53:46.093Z,1005.99
2023-04-25T06:54:46.062Z,1006.01
2023-04-25T06:55:46.040Z,1006.04
2023-04-25T06:56:46.011Z,1006.01
2023-04-25T06:57:45.984Z,1006.05
2023-04-25T06:58:45.963Z,1006.10
2023-04-25T06:59:45.938Z,1006.08
2023-04-25T07:00:45.919Z,1006.07
2023-04-25T07:01:45.885Z,1006.15
2023-04-25T07:02:45.948Z,1006.14
2023-04-25T07:03:46.137Z,1006.15
2023-04-25T07:04:45.903Z,1006.17
2023-04-25T07:05:45.780Z,1006.19
2023-04-25T07:06:45.759Z,1006.20
2023-04-25T07:07:45.727Z,1006.13
2023-04-25T07:08:45.722Z,1006.17
2023-04-25T07:09:45.741Z,1006.21
2023-04-25T07:10:47.762Z,1006.20
2023-04-25T07:11:45.636Z,1006.24
2023-04-25T07:12:45.598Z,1006.27
2023-04-25T07:13:45.577Z,1006.24
2023-04-25T07:14:45.554Z,1006.24
2023-04-25T07:15:45.522Z,1006.29
2023-04-25T07:16:45.544Z,1006.22
2023-04-25T07:17:45.642Z,1006.22
2023-04-25T07:18:45.450Z,1006.26
2023-04-25T07:19:45.440Z,1006.26
2023-04-25T07:20:45.396Z,1006.23
2023-04-25T07:21:45.366Z,1006.22
2023-04-25T07:22:45.351Z,1006.25
2023-04-25T07:23:45.330Z,1006.24
2023-04-25T07:24:45.286Z,1006.27
2023-04-25T07:25:45.263Z,1006.34
2023-04-25T07:26:45.241Z,1006.32
2023-04-25T07:27:45.208Z,1006.32
2023-04-25T07:28:45.189Z,1006.30
2023-04-25T07:29:45.158Z,1006.32
2023-04-25T07:30:45.134Z,1006.29
2023-04-25T07:31:45.123Z,1006.28
2023-04-25T07:32:45.117Z,1006.28
2023-04-25T07:33:45.052Z,1006.26
2023-04-25T07:34:45.035Z,1006.33
2023-04-25T07:35:45.021Z,1006.27
2023-04-25T07:36:44.978Z,1006.30
2023-04-25T07:37:44.945Z,1006.28
2023-04-25T07:38:44.930Z,1006.28
2023-04-25T07:39:44.899Z,1006.30
2023-04-25T07:40:44.868Z,1006.31
2023-04-25T07:41:44.852Z,1006.32
2023-04-25T07:42:44.833Z,1006.32
2023-04-25T07:43:44.798Z,1006.36
2023-04-25T07:44:44.768Z,1006.36
2023-04-25T07:45:44.786Z,1006.33
2023-04-25T07:46:44.710Z,1006.30
2023-04-25T07:47:44.717Z,1006.35
2023-04-25T07:48:44.684Z,1006.35
2023-04-25T07:49:44.634Z,1006.37
2023-04-25T07:50:44.623Z,1006.35
2023-04-25T07:51:44.612Z,1006.38
2023-04-25T07:52:44.559Z,1006.38
2023-04-25T07:53:44.572Z,1006.43
2023-04-25T07:54:44.509Z,1006.39
2023-04-25T07:55:44.482Z,1006.42
2023-04-25T07:56:52.243Z,1006.46
2023-04-25T07:57:44.446Z,1006.44
2023-04-25T07:58:44.445Z,1006.51
2023-04-25T07:59:44.375Z,1006.50
2023-04-25T08:00:44.355Z,1006.56
2023-04-25T08:01:44.325Z,1006.56
2023-04-25T08:02:44.426Z,1006.55
2023-04-25T08:03:44.593Z,1006.61
2023-04-25T08:04:44.346Z,1006.59
2023-04-25T08:05:44.470Z,1006.66
2023-04-25T08:06:44.395Z,1006.65
2023-04-25T08:07:44.192Z,1006.66
2023-04-25T08:08:44.154Z,1006.70
2023-04-25T08:09:44.117Z,1006.68
2023-04-25T08:10:44.094Z,1006.68
2023-04-25T08:11:44.067Z,1006.74
2023-04-25T08:12:44.055Z,1006.67
2023-04-25T08:13:44.016Z,1006.76
2023-04-25T08:14:43.995Z,1006.75
2023-04-25T08:15:43.980Z,1006.84
2023-04-25T08:16:43.941Z,1006.78
2023-04-25T08:17:43.923Z,1006.86
2023-04-25T08:18:43.890Z,1006.86
2023-04-25T08:19:43.858Z,1006.84
2023-04-25T08:20:43.839Z,1006.83
2023-04-25T08:21:43.808Z,1006.92
2023-04-25T08:22:43.787Z,1006.91
2023-04-25T08:23:43.787Z,1006.89
2023-04-25T08:24:43.740Z,1006.92
2023-04-25T08:25:43.756Z,1006.92
2023-04-25T08:26:43.694Z,1006.93
2023-04-25T08:27:43.657Z,1006.97
2023-04-25T08:28:43.630Z,1007.02
2023-04-25T08:29:43.603Z,1006.88
2023-04-25T08:30:43.590Z,1006.91
2023-04-25T08:31:43.581Z,1006.98
2023-04-25T08:32:43.603Z,1006.93
2023-04-25T08:33:43.500Z,1007.05
2023-04-25T08:34:43.481Z,1007.04
2023-04-25T08:35:43.449Z,1007.11
2023-04-25T08:36:43.431Z,1007.09
2023-04-25T08:37:43.401Z,1007.02
2023-04-25T08:38:43.378Z,1007.01
2023-04-25T08:39:43.371Z,1006.99
2023-04-25T08:40:43.320Z,1007.02
2023-04-25T08:41:43.304Z,1007.08
2023-04-25T08:42:43.278Z,1007.06
2023-04-25T08:43:43.250Z,1007.08
2023-04-25T08:44:43.232Z,1007.09
2023-04-25T08:45:43.302Z,1007.06
2023-04-25T08:46:43.227Z,1007.07
2023-04-25T08:47:43.190Z,1007.08
2023-04-25T08:48:43.118Z,1007.13
2023-04-25T08:49:43.098Z,1007.17
2023-04-25T08:50:43.068Z,1007.15
2023-04-25T08:51:43.039Z,1007.17
2023-04-25T08:52:43.012Z,1007.17
2023-04-25T08:53:43.408Z,1007.24
2023-04-25T08:54:43.243Z,1007.23
2023-04-25T08:55:42.952Z,1007.21
2023-04-25T08:56:42.921Z,1007.23
2023-04-25T08:57:42.885Z,1007.29
2023-04-25T08:58:42.856Z,1007.33
2023-04-25T08:59:42.830Z,1007.35
2023-04-25T09:00:42.974Z,1007.38
2023-04-25T09:01:42.821Z,1007.36
2023-04-25T09:02:42.847Z,1007.35
2023-04-25T09:03:42.815Z,1007.35
2023-04-25T09:04:42.712Z,1007.36
2023-04-25T09:05:44.093Z,1007.38
2023-04-25T09:06:42.669Z,1007.36
2023-04-25T09:07:42.637Z,1007.40
2023-04-25T09:08:42.599Z,1007.40
2023-04-25T09:09:42.573Z,1007.30
2023-04-25T09:10:42.547Z,1007.34
2023-04-25T09:11:42.610Z,1007.32
2023-04-25T09:12:42.502Z,1007.41
2023-04-25T09:13:42.482Z,1007.43
2023-04-25T09:14:42.457Z,1007.47
2023-04-25T09:15:42.424Z,1007.43
2023-04-25T09:16:42.446Z,1007.53
2023-04-25T09:17:42.455Z,1007.47
2023-04-25T09:18:48.515Z,1007.46
2023-04-25T09:19:42.697Z,1007.48
2023-04-25T09:20:59.582Z,1007.43
2023-04-25T09:21:42.269Z,1007.38
2023-04-25T09:22:42.250Z,1007.38
2023-04-25T09:23:42.229Z,1007.40
2023-04-25T09:24:42.196Z,1007.46
2023-04-25T09:25:42.172Z,1007.44
2023-04-25T09:26:42.149Z,1007.45
2023-04-25T09:27:42.216Z,1007.49
2023-04-25T09:28:42.103Z,1007.49
2023-04-25T09:29:42.092Z,1007.51
2023-04-25T09:30:42.048Z,1007.50
2023-04-25T09:31:42.029Z,1007.52
2023-04-25T09:32:42.018Z,1007.43
2023-04-25T09:33:41.997Z,1007.56
2023-04-25T09:34:41.948Z,1007.51
2023-04-25T09:35:41.922Z,1007.55
2023-04-25T09:36:41.895Z,1007.55
2023-04-25T09:37:41.875Z,1007.58
2023-04-25T09:38:41.883Z,1007.66
2023-04-25T09:39:41.832Z,1007.67
2023-04-25T09:40:41.810Z,1007.68
2023-04-25T09:41:41.765Z,1007.63
2023-04-25T09:42:41.747Z,1007.81
2023-04-25T09:43:41.817Z,1007.76
2023-04-25T09:44:41.698Z,1007.73
2023-04-25T09:45:41.676Z,1007.75
2023-04-25T09:46:41.815Z,1007.72
2023-04-25T09:47:41.641Z,1007.74
2023-04-25T09:48:41.596Z,1007.77
2023-04-25T09:49:41.569Z,1007.80
2023-04-25T09:50:41.554Z,1007.75
2023-04-25T09:51:41.524Z,1007.78
2023-04-25T09:52:41.493Z,1007.81
2023-04-25T09:53:41.464Z,1007.80
2023-04-25T09:54:41.456Z,1007.82
2023-04-25T09:55:41.415Z,1007.81
2023-04-25T09:56:41.396Z,1007.85
2023-04-25T09:57:41.364Z,1007.88
2023-04-25T09:58:41.353Z,1007.87
2023-04-25T09:59:41.335Z,1007.88
2023-04-25T10:00:41.295Z,1007.90
2023-04-25T10:01:41.364Z,1007.94
2023-04-25T10:02:41.311Z,1007.90
2023-04-25T10:03:41.410Z,1007.87
2023-04-25T10:04:41.210Z,1007.83
2023-04-25T10:05:41.172Z,1007.76
2023-04-25T10:06:41.142Z,1007.75
2023-04-25T10:07:41.149Z,1007.84
2023-04-25T10:08:41.096Z,1007.77
2023-04-25T10:09:41.068Z,1007.86
2023-04-25T10:10:41.037Z,1007.86
2023-04-25T10:11:41.021Z,1007.89
2023-04-25T10:12:40.995Z,1007.93
2023-04-25T10:13:40.975Z,1007.92
2023-04-25T10:14:40.940Z,1007.89
2023-04-25T10:15:40.992Z,1007.92
2023-04-25T10:16:40.893Z,1007.91
2023-04-25T10:17:40.898Z,1007.95
2023-04-25T10:18:40.840Z,1007.96
2023-04-25T10:19:40.816Z,1008.00
2023-04-25T10:20:40.789Z,1008.13
2023-04-25T10:21:40.752Z,1008.10
2023-04-25T10:22:40.748Z,1008.00
2023-04-25T10:23:40.706Z,1008.02
2023-04-25T10:24:40.682Z,1008.05
2023-04-25T10:25:40.652Z,1007.97
2023-04-25T10:26:40.636Z,1007.96
2023-04-25T10:27:40.641Z,1008.03
2023-04-25T10:28:40.593Z,1008.06
2023-04-25T10:29:40.556Z,1008.06
2023-04-25T10:30:40.543Z,1008.09
2023-04-25T10:31:40.668Z,1008.09
2023-04-25T10:32:40.513Z,1008.12
2023-04-25T10:33:40.460Z,1008.13
2023-04-25T10:34:40.435Z,1008.12
2023-04-25T10:35:40.403Z,1007.99
2023-04-25T10:36:40.386Z,1008.13
2023-04-25T10:37:40.824Z,1008.09
2023-04-25T10:38:40.330Z,1008.12
2023-04-25T10:39:40.306Z,1008.11
2023-04-25T10:40:40.285Z,1008.14
2023-04-25T10:41:40.254Z,1008.14
2023-04-25T10:42:40.253Z,1008.12
2023-04-25T10:43:40.220Z,1008.21
2023-04-25T10:44:40.209Z,1008.18
2023-04-25T10:45:40.155Z,1008.13
2023-04-25T10:46:40.193Z,1008.18
2023-04-25T10:47:40.224Z,1008.20
2023-04-25T10:48:40.083Z,1008.20
2023-04-25T10:49:40.069Z,1008.20
2023-04-25T10:50:40.039Z,1008.17
2023-04-25T10:51:54.871Z,1008.10
2023-04-25T10:52:39.988Z,1008.07
2023-04-25T10:53:39.976Z,1008.13
2023-04-25T10:54:39.940Z,1008.18
2023-04-25T10:55:39.913Z,1008.19
2023-04-25T10:56:39.882Z,1008.20
2023-04-25T10:57:39.875Z,1008.14
2023-04-25T10:58:39.839Z,1008.20
2023-04-25T10:59:39.809Z,1008.17
2023-04-25T11:00:53.242Z,1008.19
2023-04-25T11:01:39.813Z,1008.25
2023-04-25T11:02:39.926Z,1008.23
2023-04-25T11:03:39.893Z,1008.20
2023-04-25T11:04:40.069Z,1008.25
2023-04-25T11:05:47.619Z,1008.17
2023-04-25T11:06:39.628Z,1008.23
2023-04-25T11:07:39.617Z,1008.16
2023-04-25T11:08:39.585Z,1008.14
2023-04-25T11:09:39.554Z,1008.15
2023-04-25T11:10:39.531Z,1008.14
2023-04-25T11:11:39.493Z,1008.19
2023-04-25T11:12:39.477Z,1008.20
2023-04-25T11:13:39.445Z,1008.22
2023-04-25T11:15:39.416Z,1008.26
2023-04-25T11:16:39.397Z,1008.22
2023-04-25T11:17:39.380Z,1008.17
2023-04-25T11:18:39.325Z,1008.14
2023-04-25T11:19:39.324Z,1008.19
2023-04-25T11:20:39.316Z,1008.16
2023-04-25T11:21:39.255Z,1008.21
2023-04-25T11:22:39.230Z,1008.20
2023-04-25T11:23:39.205Z,1008.25
2023-04-25T11:24:39.216Z,1008.28
2023-04-25T11:25:39.228Z,1008.27
2023-04-25T11:26:39.142Z,1008.29
2023-04-25T11:27:39.102Z,1008.31
2023-04-25T11:28:39.082Z,1008.37
2023-04-25T11:29:39.058Z,1008.37
2023-04-25T11:30:39.038Z,1008.31
2023-04-25T11:31:39.036Z,1008.34
2023-04-25T11:32:39.029Z,1008.36
2023-04-25T11:33:38.962Z,1008.35
2023-04-25T11:34:38.929Z,1008.33
2023-04-25T11:35:39.002Z,1008.35
2023-04-25T11:36:38.876Z,1008.36
2023-04-25T11:37:38.848Z,1008.34
2023-04-25T11:38:38.827Z,1008.36
2023-04-25T11:39:38.798Z,1008.34
2023-04-25T11:40:38.772Z,1008.32
2023-04-25T11:41:38.767Z,1008.37
2023-04-25T11:42:38.714Z,1008.35
2023-04-25T11:43:39.309Z,1008.40
2023-04-25T11:44:38.675Z,1008.44
2023-04-25T11:45:38.758Z,1008.41
2023-04-25T11:46:38.789Z,1008.40
2023-04-25T11:47:38.634Z,1008.45
2023-04-25T11:48:38.581Z,1008.45
2023-04-25T11:49:38.603Z,1008.53
2023-04-25T11:50:38.543Z,1008.50
2023-04-25T11:51:38.578Z,1008.49
2023-04-25T11:52:38.483Z,1008.51
2023-04-25T11:53:38.452Z,1008.50
2023-04-25T11:54:38.440Z,1008.49
2023-04-25T11:55:38.397Z,1008.51
2023-04-25T11:56:38.378Z,1008.54
2023-04-25T11:57:38.341Z,1008.55
2023-04-25T11:58:38.311Z,1008.55
2023-04-25T11:59:38.292Z,1008.51
2023-04-25T12:00:38.271Z,1008.52
2023-04-25T12:01:38.240Z,1008.55
2023-04-25T12:02:38.455Z,1008.64
2023-04-25T12:03:38.426Z,1008.62
2023-04-25T12:04:38.571Z,1008.58
2023-04-25T12:05:38.251Z,1008.65
2023-04-25T12:06:38.168Z,1008.61